Time;durP1;ratioP1;P1;durP2;ratioP2;P2;SDS_P1;SDS_P2;PMS_P1;PMS_P2;Temp;Humidity;BMP_temperature;BMP_pressure;BME280_temperature;BME280_humidity;BME280_pressure;Samples;Min_cycle;Max_cycle;Signal;HPM_P1;HPM_P2
2021/01/04 00:00:00;;;;;;;35.45;15.63;;;7.60;99.90;;;;;;5064661;28;20032;-73
2021/01/04 00:02:26;;;;;;;39.03;16.48;;;7.60;99.90;;;;;;5077903;28;20040;-74
2021/01/04 00:05:18;;;;;;;39.75;18.00;;;7.60;99.90;;;;;;5092487;28;20027;-72
2021/01/04 00:08:10;;;;;;;41.22;16.23;;;7.70;99.90;;;;;;5061697;28;20036;-76
2021/01/04 00:10:44;;;;;;;34.42;13.88;;;7.70;99.90;;;;;;5100759;28;20485;-75
2021/01/04 00:13:31;;;;;;;29.48;13.48;;;7.60;99.90;;;;;;5090625;28;20055;-73
2021/01/04 00:16:56;;;;;;;24.15;12.52;;;7.70;99.90;;;;;;5094691;28;20024;-72
2021/01/04 00:19:43;;;;;;;29.60;12.80;;;7.70;99.90;;;;;;5001987;28;20046;-72
2021/01/04 00:22:29;;;;;;;29.77;13.80;;;7.40;99.90;;;;;;4989268;28;20035;-72
2021/01/04 00:25:35;;;;;;;26.20;12.02;;;7.70;99.90;;;;;;5005465;28;20034;-72
2021/01/04 00:28:01;;;;;;;21.25;9.77;;;7.70;99.90;;;;;;5005823;28;20551;-74
2021/01/04 00:30:33;;;;;;;15.57;9.65;;;7.90;99.90;;;;;;5002378;28;20037;-73
2021/01/04 00:33:25;;;;;;;14.75;8.43;;;8.00;99.90;;;;;;4995394;28;20030;-75
2021/01/04 00:35:56;;;;;;;11.00;7.50;;;7.80;99.90;;;;;;4987626;28;20046;-76
2021/01/04 00:38:50;;;;;;;15.55;8.73;;;8.00;99.90;;;;;;4994899;28;20073;-74
2021/01/04 00:41:30;;;;;;;18.42;8.95;;;8.10;99.90;;;;;;4994792;28;20037;-75
2021/01/04 00:43:58;;;;;;;14.45;9.07;;;8.00;99.90;;;;;;4991349;28;20030;-74
2021/01/04 00:46:42;;;;;;;20.70;9.65;;;7.90;99.90;;;;;;4995156;28;20033;-74
2021/01/04 00:49:28;;;;;;;27.98;12.82;;;7.90;99.90;;;;;;5004894;28;20037;-75
2021/01/04 00:52:06;;;;;;;27.55;13.77;;;7.90;99.90;;;;;;5059615;28;20071;-76
2021/01/04 00:54:34;;;;;;;31.08;14.63;;;7.80;99.90;;;;;;5058186;28;20471;-76
2021/01/04 00:57:37;;;;;;;23.95;13.70;;;7.90;99.90;;;;;;5059865;28;20024;-74
2021/01/04 01:00:12;;;;;;;22.02;10.75;;;7.90;99.90;;;;;;5058979;28;20036;-73
2021/01/04 01:02:44;;;;;;;18.83;9.98;;;7.90;99.90;;;;;;5056551;28;20029;-73
2021/01/04 01:05:48;;;;;;;20.02;10.40;;;7.90;99.90;;;;;;5057108;28;20052;-74
2021/01/04 01:08:31;;;;;;;18.75;10.80;;;7.90;99.90;;;;;;5055218;28;20040;-74
2021/01/04 01:11:06;;;;;;;23.57;11.00;;;7.80;99.90;;;;;;5054602;28;20025;-73
2021/01/04 01:13:56;;;;;;;15.32;10.10;;;7.80;99.90;;;;;;5055968;28;20254;-75
2021/01/04 01:16:52;;;;;;;17.13;10.82;;;7.80;99.90;;;;;;5056176;28;20025;-75
2021/01/04 01:19:27;;;;;;;22.27;11.07;;;7.70;99.90;;;;;;5054647;28;20487;-74
2021/01/04 01:21:53;;;;;;;26.27;11.38;;;7.80;99.90;;;;;;5055908;28;20053;-73
2021/01/04 01:24:19;;;;;;;21.48;11.52;;;7.80;99.90;;;;;;5045116;28;20037;-73
2021/01/04 01:27:11;;;;;;;32.55;13.57;;;7.80;99.90;;;;;;5050820;28;20025;-73
2021/01/04 01:29:58;;;;;;;34.33;13.70;;;7.80;99.90;;;;;;5056671;28;20471;-74
2021/01/04 01:32:42;;;;;;;29.35;13.30;;;7.70;99.90;;;;;;5077062;28;20044;-76
2021/01/04 01:35:20;;;;;;;16.25;9.70;;;7.70;99.90;;;;;;5095536;28;20024;-73
2021/01/04 01:38:28;;;;;;;12.18;8.13;;;7.70;99.90;;;;;;5095514;28;20032;-74
2021/01/04 01:41:12;;;;;;;10.75;6.85;;;7.70;99.90;;;;;;5058578;28;20131;-76
2021/01/04 01:43:58;;;;;;;17.45;9.15;;;7.60;99.90;;;;;;5085467;28;20025;-73
2021/01/04 01:47:03;;;;;;;13.90;7.82;;;7.70;99.90;;;;;;5071142;28;20058;-73
2021/01/04 01:49:44;;;;;;;17.60;8.10;;;7.70;99.90;;;;;;5059437;28;20387;-73
2021/01/04 01:52:43;;;;;;;10.57;6.38;;;7.70;99.90;;;;;;5095260;28;20378;-72
2021/01/04 01:55:18;;;;;;;15.70;7.97;;;7.70;99.90;;;;;;5064271;28;20107;-71
2021/01/04 01:57:55;;;;;;;18.27;8.05;;;7.80;99.90;;;;;;5095294;28;20034;-73
2021/01/04 02:00:33;;;;;;;10.15;6.80;;;7.60;99.90;;;;;;5095066;28;20028;-75
2021/01/04 02:03:10;;;;;;;12.00;7.20;;;7.70;99.90;;;;;;5095059;28;20024;-76
2021/01/04 02:06:18;;;;;;;11.32;6.45;;;7.70;99.90;;;;;;5095210;28;20024;-74
2021/01/04 02:08:51;;;;;;;11.88;6.82;;;7.80;99.90;;;;;;4993372;28;20046;-75
2021/01/04 02:11:48;;;;;;;11.00;7.03;;;7.80;99.90;;;;;;4977356;28;20053;-77
2021/01/04 02:14:38;;;;;;;13.43;7.38;;;7.80;99.90;;;;;;4968331;28;20030;-75
2021/01/04 02:17:12;;;;;;;15.32;8.63;;;7.80;99.90;;;;;;4993989;28;20170;-75
2021/01/04 02:19:47;;;;;;;;;;;7.80;99.90;;;;;;4993286;28;20038;-74
2021/01/04 02:22:55;;;;;;;18.35;9.73;;;7.80;99.90;;;;;;4976859;28;20327;-75
2021/01/04 02:25:31;;;;;;;18.60;10.23;;;7.80;99.90;;;;;;4992843;28;20038;-74
2021/01/04 02:28:02;;;;;;;19.58;10.77;;;7.80;99.90;;;;;;4992712;28;20396;-74
2021/01/04 02:30:28;;;;;;;17.90;10.13;;;7.80;99.90;;;;;;4960288;28;20037;-73
2021/01/04 02:32:55;;;;;;;15.25;8.07;;;7.80;99.90;;;;;;4992956;28;20050;-72
2021/01/04 02:35:21;;;;;;;15.10;10.13;;;7.80;99.90;;;;;;4977583;28;20092;-74
2021/01/04 02:37:46;;;;;;;15.93;9.93;;;7.80;99.90;;;;;;4977329;28;20030;-73
2021/01/04 02:40:15;;;;;;;25.90;12.35;;;7.80;99.90;;;;;;4993014;28;20412;-75
2021/01/04 02:42:49;;;;;;;23.17;12.68;;;7.80;99.90;;;;;;4993447;28;20026;-74
2021/01/04 02:45:28;;;;;;;23.55;10.38;;;7.80;99.90;;;;;;5031412;28;20115;-74
2021/01/04 02:48:12;;;;;;;19.30;9.15;;;7.80;99.90;;;;;;5076141;28;20229;-72
2021/01/04 02:50:43;;;;;;;;;;;7.90;99.90;;;;;;5095210;28;20111;-72
2021/01/04 02:53:51;;;;;;;9.82;6.78;;;7.90;99.90;;;;;;5094312;28;19935;-73
2021/01/04 02:56:27;;;;;;;13.38;7.43;;;7.80;99.90;;;;;;5095379;28;20020;-76
2021/01/04 02:59:07;;;;;;;9.43;6.10;;;7.80;99.90;;;;;;5096026;28;20032;-73
2021/01/04 03:01:48;;;;;;;11.23;6.78;;;7.80;99.90;;;;;;5096191;28;20031;-74
2021/01/04 03:04:17;;;;;;;10.27;5.95;;;7.90;99.90;;;;;;5096035;28;20020;-74
2021/01/04 03:07:06;;;;;;;12.85;6.68;;;8.00;99.90;;;;;;5098651;28;20023;-74
2021/01/04 03:09:33;;;;;;;13.20;6.70;;;8.20;99.90;;;;;;5096913;28;20474;-74
2021/01/04 03:12:00;;;;;;;13.18;7.53;;;;;;;;;;5064342;28;20422;-75
2021/01/04 03:14:44;;;;;;;10.60;6.68;;;8.20;99.90;;;;;;5096180;28;20022;-74
2021/01/04 03:17:25;;;;;;;12.60;6.40;;;8.00;99.90;;;;;;5092578;28;20070;-73
2021/01/04 03:19:56;;;;;;;14.82;8.50;;;8.20;99.90;;;;;;5089946;28;20028;-74
2021/01/04 03:22:22;;;;;;;16.45;7.78;;;8.20;99.90;;;;;;5084131;28;20020;-74
2021/01/04 03:24:50;;;;;;;13.63;7.65;;;8.30;99.90;;;;;;5078290;28;20028;-74
2021/01/04 03:27:21;;;;;;;13.48;7.05;;;8.20;99.90;;;;;;5097030;28;20027;-76
2021/01/04 03:29:47;;;;;;;11.68;6.55;;;8.10;99.90;;;;;;5069857;28;20034;-74
2021/01/04 03:32:14;;;;;;;15.05;7.40;;;8.30;99.90;;;;;;5095614;28;20470;-73
2021/01/04 03:34:39;;;;;;;13.55;7.70;;;8.90;99.90;;;;;;5070531;28;20028;-75
2021/01/04 03:37:05;;;;;;;14.57;8.15;;;8.40;99.90;;;;;;5093163;28;20059;-75
2021/01/04 03:39:31;;;;;;;10.98;6.78;;;8.50;99.90;;;;;;5061046;28;20427;-74
2021/01/04 03:41:58;;;;;;;13.63;6.53;;;8.30;99.90;;;;;;5087862;28;20024;-73
2021/01/04 03:44:27;;;;;;;14.32;7.95;;;8.40;99.90;;;;;;5080878;28;20170;-74
2021/01/04 03:46:53;;;;;;;15.88;10.20;;;8.30;99.90;;;;;;5096540;28;20016;-74
2021/01/04 03:49:22;;;;;;;14.05;9.27;;;8.30;99.90;;;;;;5081189;28;20473;-73
2021/01/04 03:51:56;;;;;;;18.35;10.30;;;8.40;99.90;;;;;;5075344;28;20458;-76
2021/01/04 03:54:23;;;;;;;13.35;7.43;;;8.50;99.90;;;;;;5095111;28;20459;-74
2021/01/04 03:56:49;;;;;;;13.57;6.35;;;8.90;99.90;;;;;;5095151;28;20378;-75
2021/01/04 03:59:15;;;;;;;13.88;7.53;;;8.40;99.90;;;;;;5082245;28;20029;-76
2021/01/04 04:01:55;;;;;;;10.20;7.07;;;8.50;99.90;;;;;;5093410;28;20100;-73
2021/01/04 04:04:22;;;;;;;13.05;7.55;;;8.60;99.90;;;;;;5095744;28;20117;-73
2021/01/04 04:06:48;;;;;;;13.00;6.22;;;8.50;99.90;;;;;;5094266;28;20378;-73
2021/01/04 04:09:15;;;;;;;10.75;6.28;;;8.60;99.90;;;;;;5095524;28;20058;-73
2021/01/04 04:11:40;;;;;;;10.15;5.72;;;8.60;99.90;;;;;;5093815;28;20017;-76
2021/01/04 04:14:07;;;;;;;14.80;7.00;;;8.50;99.90;;;;;;5088100;28;20066;-75
2021/01/04 04:16:33;;;;;;;11.55;6.43;;;8.50;99.90;;;;;;5090737;28;20076;-75
2021/01/04 04:18:59;;;;;;;9.63;6.90;;;8.60;99.90;;;;;;5076107;28;20024;-76
2021/01/04 04:21:25;;;;;;;12.38;6.40;;;8.60;99.90;;;;;;5097288;28;20031;-76
2021/01/04 04:23:51;;;;;;;10.27;6.53;;;8.50;99.90;;;;;;5096997;28;20493;-74
2021/01/04 04:26:19;;;;;;;12.38;6.75;;;8.60;99.90;;;;;;5077373;28;20024;-74
2021/01/04 04:28:45;;;;;;;13.25;7.47;;;8.60;99.90;;;;;;5096114;28;20028;-75
2021/01/04 04:31:13;;;;;;;13.65;6.75;;;8.60;99.90;;;;;;5073479;28;20071;-74
2021/01/04 04:33:40;;;;;;;11.70;5.82;;;8.60;99.90;;;;;;5074026;28;20084;-74
2021/01/04 04:36:10;;;;;;;12.20;6.63;;;8.60;99.90;;;;;;5067678;28;20035;-75
2021/01/04 04:38:37;;;;;;;13.13;6.93;;;8.50;99.90;;;;;;5069663;28;20039;-74
2021/01/04 04:41:03;;;;;;;10.95;6.95;;;8.70;99.90;;;;;;5073220;28;20024;-73
2021/01/04 04:43:35;;;;;;;14.57;6.90;;;8.50;99.90;;;;;;5066859;28;20096;-74
2021/01/04 04:46:06;;;;;;;17.30;7.47;;;7.70;99.90;;;;;;5070190;28;20029;-75
2021/01/04 04:48:49;;;;;;;13.43;7.55;;;8.40;99.90;;;;;;5071253;28;20028;-73
2021/01/04 04:51:20;;;;;;;11.90;6.20;;;8.10;99.90;;;;;;5074034;28;20035;-74
2021/01/04 04:54:07;;;;;;;9.77;6.28;;;8.30;99.90;;;;;;5078237;28;20032;-75
2021/01/04 04:56:52;;;;;;;12.63;6.68;;;8.40;99.90;;;;;;5078167;28;20027;-77
2021/01/04 04:59:43;;;;;;;16.55;6.63;;;8.40;99.90;;;;;;5079671;28;20025;-75
2021/01/04 05:02:25;;;;;;;12.77;6.38;;;8.40;99.90;;;;;;5070933;28;20025;-74
2021/01/04 05:05:06;;;;;;;11.15;5.95;;;8.40;99.90;;;;;;5078535;28;20017;-73
2021/01/04 05:07:44;;;;;;;9.38;5.80;;;8.70;99.90;;;;;;5079514;28;20112;-74
2021/01/04 05:10:19;;;;;;;11.70;6.35;;;8.30;99.90;;;;;;5078653;28;20029;-73
2021/01/04 05:13:03;;;;;;;11.68;5.95;;;8.40;99.90;;;;;;5078816;28;20070;-73
2021/01/04 05:15:50;;;;;;;13.75;7.90;;;8.40;99.90;;;;;;5070776;28;20036;-72
2021/01/04 05:18:24;;;;;;;11.38;7.63;;;8.30;99.90;;;;;;5074156;28;20115;-72
2021/01/04 05:21:18;;;;;;;13.52;6.93;;;8.20;99.90;;;;;;5076114;28;20025;-74
2021/01/04 05:24:14;;;;;;;12.83;7.60;;;8.20;99.90;;;;;;5076476;28;20025;-75
2021/01/04 05:27:02;;;;;;;9.00;6.38;;;8.30;99.90;;;;;;5071904;28;20031;-76
2021/01/04 05:29:55;;;;;;;9.80;6.10;;;8.30;99.90;;;;;;5074559;28;20090;-73
2021/01/04 05:32:49;;;;;;;9.25;6.60;;;8.40;99.90;;;;;;5092582;28;20055;-74
2021/01/04 05:35:16;;;;;;;10.02;6.38;;;8.30;99.90;;;;;;5098429;28;20051;-73
2021/01/04 05:37:48;;;;;;;9.80;6.10;;;8.20;99.90;;;;;;5097172;28;20020;-73
2021/01/04 05:40:32;;;;;;;8.25;5.10;;;8.20;99.90;;;;;;5098501;28;20055;-74
2021/01/04 05:43:31;;;;;;;13.30;7.15;;;8.10;99.90;;;;;;5093154;28;20016;-73
2021/01/04 05:46:04;;;;;;;19.42;8.70;;;8.20;99.90;;;;;;5092123;28;20194;-74
2021/01/04 05:48:48;;;;;;;20.48;10.00;;;8.10;99.90;;;;;;5095574;28;20032;-74
2021/01/04 05:51:20;;;;;;;27.08;14.55;;;8.20;99.90;;;;;;5092841;28;20496;-74
2021/01/04 05:53:46;;;;;;;24.25;12.90;;;7.70;99.90;;;;;;5093424;28;20031;-73
2021/01/04 05:56:22;;;;;;;22.65;11.70;;;8.20;99.90;;;;;;5079262;28;20021;-74
2021/01/04 05:58:51;;;;;;;19.00;12.23;;;6.90;99.90;;;;;;5094134;28;20164;-73
2021/01/04 06:01:26;;;;;;;22.00;12.02;;;8.20;99.90;;;;;;5076449;28;20024;-74
2021/01/04 06:04:00;;;;;;;20.35;11.02;;;9.40;99.90;;;;;;5094113;28;20020;-73
2021/01/04 06:06:37;;;;;;;25.38;10.65;;;6.50;99.90;;;;;;5094291;28;20027;-74
2021/01/04 06:09:09;;;;;;;27.70;11.88;;;7.50;99.90;;;;;;5095715;28;20050;-74
2021/01/04 06:11:46;;;;;;;17.30;9.60;;;8.30;99.90;;;;;;5094873;28;20032;-74
2021/01/04 06:14:12;;;;;;;19.33;11.57;;;7.20;99.90;;;;;;5085662;28;20025;-74
2021/01/04 06:16:42;;;;;;;21.58;9.82;;;8.30;99.90;;;;;;5090144;28;20047;-74
2021/01/04 06:19:15;;;;;;;24.42;10.25;;;8.30;99.90;;;;;;5069556;28;20036;-73
2021/01/04 06:21:52;;;;;;;13.65;8.27;;;8.30;99.90;;;;;;5097925;28;20107;-74
2021/01/04 06:24:31;;;;;;;15.27;9.32;;;8.20;99.90;;;;;;5095483;28;20039;-74
2021/01/04 06:27:00;;;;;;;17.58;9.05;;;8.30;99.90;;;;;;5094782;28;20024;-72
2021/01/04 06:29:33;;;;;;;15.10;9.35;;;8.40;99.90;;;;;;5086175;28;20032;-73
2021/01/04 06:32:01;;;;;;;16.88;9.38;;;8.40;99.90;;;;;;5090632;28;20048;-73
2021/01/04 06:34:35;;;;;;;14.38;10.30;;;8.40;99.90;;;;;;5094881;28;20034;-73
2021/01/04 06:37:18;;;;;;;27.55;11.60;;;8.40;99.90;;;;;;5095075;28;20099;-71
2021/01/04 06:39:50;;;;;;;21.20;9.80;;;8.50;99.90;;;;;;5095360;28;20046;-72
2021/01/04 06:42:21;;;;;;;19.95;11.75;;;8.50;99.90;;;;;;5076387;28;21847;-72
2021/01/04 06:45:14;;;;;;;25.60;12.23;;;8.60;99.90;;;;;;5079885;28;20024;-73
2021/01/04 06:47:58;;;;;;;36.03;15.43;;;8.50;99.90;;;;;;5093836;28;20103;-74
2021/01/04 06:50:35;;;;;;;24.20;13.75;;;9.10;99.90;;;;;;5094645;28;20024;-72
2021/01/04 06:53:20;;;;;;;30.08;13.07;;;8.50;99.90;;;;;;5094106;28;20031;-73
2021/01/04 06:55:51;;;;;;;28.05;12.27;;;8.60;99.90;;;;;;5095554;28;20031;-72
2021/01/04 06:58:38;;;;;;;23.20;12.90;;;8.50;99.90;;;;;;5095276;28;20390;-72
2021/01/04 07:01:27;;;;;;;23.98;11.80;;;8.60;99.90;;;;;;5094310;28;20363;-74
2021/01/04 07:04:11;;;;;;;25.48;11.05;;;8.20;99.90;;;;;;5094159;28;20434;-74
2021/01/04 07:06:55;;;;;;;21.95;11.48;;;8.60;99.90;;;;;;5061628;28;20031;-74
2021/01/04 07:09:39;;;;;;;23.80;11.88;;;8.40;99.90;;;;;;5093811;28;20028;-73
2021/01/04 07:12:18;;;;;;;22.45;11.15;;;8.70;99.90;;;;;;5093906;28;20016;-72
2021/01/04 07:15:02;;;;;;;20.00;10.40;;;8.70;99.90;;;;;;5093358;28;20036;-74
2021/01/04 07:17:59;;;;;;;23.30;10.20;;;8.70;99.90;;;;;;5093930;28;20046;-74
2021/01/04 07:20:27;;;;;;;19.13;9.70;;;8.70;99.90;;;;;;5079844;28;20104;-74
2021/01/04 07:23:12;;;;;;;21.25;10.95;;;8.70;99.90;;;;;;5093670;28;20027;-74
2021/01/04 07:26:05;;;;;;;30.33;13.55;;;8.60;99.90;;;;;;5075620;28;20027;-72
2021/01/04 07:29:09;;;;;;;28.67;16.47;;;8.60;99.90;;;;;;5093847;28;20112;-74
2021/01/04 07:31:48;;;;;;;;;;;8.60;99.90;;;;;;5093787;28;20051;-75
2021/01/04 07:34:23;;;;;;;41.30;22.15;;;8.70;99.90;;;;;;5093470;28;19904;-72
2021/01/04 07:36:55;;;;;;;35.42;18.08;;;8.70;99.90;;;;;;5093123;28;20150;-73
2021/01/04 07:39:45;;;;;;;37.05;16.20;;;8.70;99.90;;;;;;5080054;28;20039;-72
2021/01/04 07:42:38;;;;;;;31.45;17.20;;;8.70;99.90;;;;;;5076856;28;20043;-72
2021/01/04 07:45:31;;;;;;;34.75;18.13;;;8.80;99.90;;;;;;5081803;28;20370;-73
2021/01/04 07:48:06;;;;;;;37.43;19.17;;;8.70;99.90;;;;;;5093839;28;20038;-74
2021/01/04 07:50:55;;;;;;;44.80;23.25;;;8.70;99.90;;;;;;5082440;28;20704;-72
2021/01/04 07:53:25;;;;;;;51.22;24.75;;;8.70;99.90;;;;;;5079222;28;20073;-73
2021/01/04 07:56:12;;;;;;;57.75;30.70;;;8.70;99.90;;;;;;5093097;28;20043;-74
2021/01/04 07:59:06;;;;;;;48.15;27.08;;;8.40;99.90;;;;;;5067561;28;20111;-74
2021/01/04 08:02:13;;;;;;;53.47;29.57;;;8.30;99.90;;;;;;5054982;28;20036;-72
2021/01/04 08:04:46;;;;;;;51.05;27.65;;;8.60;99.90;;;;;;5087832;28;20035;-73
2021/01/04 08:07:35;;;;;;;56.35;28.23;;;8.70;99.90;;;;;;5093328;28;20048;-74
2021/01/04 08:10:04;;;;;;;68.65;33.22;;;8.60;99.90;;;;;;5060680;28;20021;-73
2021/01/04 08:12:57;;;;;;;62.72;30.88;;;8.50;99.90;;;;;;5092997;28;20024;-74
2021/01/04 08:15:31;;;;;;;51.17;28.77;;;8.50;99.90;;;;;;5093379;28;20024;-74
2021/01/04 08:18:09;;;;;;;51.00;28.48;;;8.50;99.90;;;;;;5093147;28;20032;-75
2021/01/04 08:20:49;;;;;;;50.95;26.13;;;8.50;99.90;;;;;;5055044;28;20024;-74
2021/01/04 08:23:40;;;;;;;48.20;24.88;;;8.60;99.90;;;;;;5087512;28;20031;-74
2021/01/04 08:26:05;;;;;;;39.92;19.20;;;8.50;99.90;;;;;;5084065;28;20027;-73
2021/01/04 08:29:04;;;;;;;33.17;18.45;;;8.60;99.90;;;;;;5093861;28;20028;-74
2021/01/04 08:32:11;;;;;;;39.00;21.05;;;8.70;99.90;;;;;;5066359;28;20044;-73
2021/01/04 08:34:42;;;;;;;42.80;22.45;;;8.80;99.90;;;;;;5054104;28;20113;-72
2021/01/04 08:37:10;;;;;;;33.13;20.50;;;8.90;99.90;;;;;;5096658;28;20035;-71
2021/01/04 08:39:45;;;;;;;30.80;16.20;;;8.70;99.90;;;;;;5096487;28;20060;-72
2021/01/04 08:42:24;;;;;;;24.52;14.13;;;8.80;99.90;;;;;;5096792;28;20024;-73
2021/01/04 08:45:02;;;;;;;24.23;13.57;;;8.70;99.90;;;;;;5058365;28;20047;-73
2021/01/04 08:47:32;;;;;;;31.05;16.90;;;9.00;99.90;;;;;;5090452;28;20031;-73
2021/01/04 08:50:05;;;;;;;32.80;15.23;;;9.10;99.90;;;;;;5096898;28;20051;-75
2021/01/04 08:52:39;;;;;;;23.60;11.93;;;9.20;99.90;;;;;;5096181;28;20052;-73
2021/01/04 08:55:06;;;;;;;25.75;13.00;;;9.20;99.90;;;;;;5082716;28;20020;-77
2021/01/04 08:58:22;;;;;;;14.63;9.43;;;9.10;99.90;;;;;;5096403;28;20081;-80
2021/01/04 09:01:02;;;;;;;15.95;10.13;;;9.20;99.90;;;;;;5011871;28;20038;-72
2021/01/04 09:03:31;;;;;;;19.48;10.18;;;9.10;99.90;;;;;;5016705;28;20069;-75
2021/01/04 09:06:08;;;;;;;15.88;9.52;;;9.30;99.90;;;;;;5005370;28;20031;-73
2021/01/04 09:08:34;;;;;;;16.60;10.25;;;9.50;99.90;;;;;;4980514;28;20035;-74
2021/01/04 09:11:07;;;;;;;18.27;9.77;;;9.50;99.90;;;;;;5007267;28;20400;-74
2021/01/04 09:13:35;;;;;;;28.47;10.97;;;9.60;99.90;;;;;;4997305;28;20030;-76
2021/01/04 09:16:12;;;;;;;21.70;8.63;;;9.60;99.90;;;;;;5005391;28;20038;-73
2021/01/04 09:18:54;;;;;;;16.52;9.65;;;9.70;99.90;;;;;;5014929;28;20034;-77
2021/01/04 09:22:01;;;;;;;18.60;9.63;;;9.60;99.90;;;;;;4995219;28;20049;-73
2021/01/04 09:24:27;;;;;;;17.88;9.50;;;9.60;99.90;;;;;;4997402;28;20116;-72
2021/01/04 09:27:16;;;;;;;16.95;8.95;;;9.40;99.90;;;;;;5008653;28;20116;-74
2021/01/04 09:29:47;;;;;;;19.23;10.90;;;9.40;99.90;;;;;;5010903;28;20388;-73
2021/01/04 09:32:16;;;;;;;25.98;12.15;;;9.40;99.90;;;;;;5010859;28;20129;-72
2021/01/04 09:34:42;;;;;;;21.17;12.50;;;9.40;99.90;;;;;;4994378;28;20030;-77
2021/01/04 09:37:13;;;;;;;29.77;13.40;;;9.40;99.90;;;;;;5085884;28;20067;-74
2021/01/04 09:39:41;;;;;;;36.63;14.85;;;9.30;99.90;;;;;;5090591;28;20028;-74
2021/01/04 09:42:13;;;;;;;24.45;14.93;;;9.30;99.90;;;;;;5094620;28;20050;-80
2021/01/04 09:44:39;;;;;;;31.08;14.00;;;9.30;99.90;;;;;;5081461;28;20104;-77
2021/01/04 09:47:24;;;;;;;26.55;15.93;;;9.30;99.90;;;;;;5085129;28;20040;-75
2021/01/04 09:49:54;;;;;;;29.13;16.10;;;9.30;99.90;;;;;;5075859;28;20028;-73
2021/01/04 09:52:34;;;;;;;28.35;15.23;;;9.30;99.90;;;;;;5094800;28;20032;-74
2021/01/04 09:55:06;;;;;;;35.22;14.93;;;9.30;99.90;;;;;;5094329;28;20024;-74
2021/01/04 09:57:36;;;;;;;35.08;17.92;;;9.30;99.90;;;;;;5094666;28;20107;-75
2021/01/04 10:00:19;;;;;;;33.55;17.75;;;9.30;99.90;;;;;;5095486;28;20032;-79
2021/01/04 10:02:45;;;;;;;33.22;18.52;;;9.30;99.90;;;;;;5094581;28;20114;-75
2021/01/04 10:05:14;;;;;;;32.22;18.60;;;9.30;99.90;;;;;;5094784;28;20132;-74
2021/01/04 10:07:41;;;;;;;35.15;17.70;;;9.40;99.90;;;;;;5068126;28;20036;-73
2021/01/04 10:10:18;;;;;;;28.10;15.85;;;9.40;99.90;;;;;;5091884;28;20347;-76
2021/01/04 10:12:44;;;;;;;26.75;14.45;;;9.40;99.90;;;;;;5095134;28;20028;-75
2021/01/04 10:15:23;;;;;;;26.50;14.60;;;9.50;99.90;;;;;;5094177;28;20028;-73
2021/01/04 10:18:17;;;;;;;30.48;16.77;;;9.50;99.90;;;;;;5094583;28;20055;-74
2021/01/04 10:20:51;;;;;;;25.25;13.50;;;9.60;99.90;;;;;;5094562;28;20367;-74
2021/01/04 10:23:45;;;;;;;24.92;14.40;;;9.60;99.90;;;;;;5086295;28;20103;-74
2021/01/04 10:26:11;;;;;;;23.95;13.73;;;9.60;99.90;;;;;;5089184;28;20034;-74
2021/01/04 10:28:39;;;;;;;29.80;15.70;;;9.60;99.90;;;;;;5101034;28;20032;-73
2021/01/04 10:31:10;;;;;;;25.20;13.23;;;9.60;99.90;;;;;;5094110;28;20047;-76
2021/01/04 10:33:38;;;;;;;27.17;13.68;;;9.60;99.90;;;;;;5094389;28;20031;-75
2021/01/04 10:36:18;;;;;;;22.20;13.52;;;9.70;99.90;;;;;;5076183;28;20385;-73
2021/01/04 10:39:04;;;;;;;38.90;24.38;;;9.70;99.90;;;;;;5068685;28;20029;-75
2021/01/04 10:41:33;;;;;;;33.92;17.30;;;9.70;99.90;;;;;;5094374;28;20028;-73
2021/01/04 10:44:09;;;;;;;21.40;9.30;;;9.80;99.90;;;;;;5090218;28;20020;-74
2021/01/04 10:46:45;;;;;;;35.53;14.73;;;9.80;99.90;;;;;;5073477;28;20024;-75
2021/01/04 10:49:24;;;;;;;28.42;13.85;;;9.80;99.90;;;;;;5075556;28;20058;-74
2021/01/04 10:51:52;;;;;;;43.28;18.33;;;9.80;99.90;;;;;;5074797;28;20085;-74
2021/01/04 10:54:22;;;;;;;29.40;12.15;;;9.70;99.90;;;;;;5092038;28;20490;-73
2021/01/04 10:57:04;;;;;;;28.50;13.80;;;9.60;99.90;;;;;;5092292;28;20055;-74
2021/01/04 10:59:33;;;;;;;20.88;9.18;;;9.70;99.90;;;;;;5092711;28;20028;-76
2021/01/04 11:01:59;;;;;;;12.15;5.47;;;9.70;99.90;;;;;;5068233;28;20037;-73
2021/01/04 11:04:26;;;;;;;11.40;6.88;;;9.70;99.90;;;;;;5069103;28;20028;-75
2021/01/04 11:07:13;;;;;;;11.95;6.65;;;9.70;99.90;;;;;;5092154;28;20016;-74
2021/01/04 11:09:41;;;;;;;52.35;23.05;;;9.70;99.90;;;;;;5091471;28;20427;-77
2021/01/04 11:12:21;;;;;;;77.85;31.80;;;9.70;99.90;;;;;;5092784;28;20028;-73
2021/01/04 11:15:01;;;;;;;16.63;10.15;;;9.70;99.90;;;;;;5090824;28;20020;-81
2021/01/04 11:17:34;;;;;;;20.25;9.68;;;9.70;99.90;;;;;;5091393;28;20101;-74
2021/01/04 11:20:15;;;;;;;53.05;28.05;;;9.70;99.90;;;;;;5091561;28;20039;-73
2021/01/04 11:22:42;;;;;;;39.80;21.48;;;9.80;99.90;;;;;;5090274;28;20143;-75
2021/01/04 11:25:09;;;;;;;43.85;22.70;;;9.80;99.90;;;;;;5071298;28;20055;-76
2021/01/04 11:27:35;;;;;;;53.80;26.73;;;9.80;99.90;;;;;;5074215;28;20166;-74
2021/01/04 11:30:01;;;;;;;28.65;14.50;;;9.90;99.90;;;;;;5092441;28;20106;-76
2021/01/04 11:32:27;;;;;;;18.52;9.82;;;9.90;99.90;;;;;;5094583;28;20103;-76
2021/01/04 11:34:55;;;;;;;44.22;21.02;;;9.90;99.90;;;;;;5093767;28;20386;-74
2021/01/04 11:37:23;;;;;;;49.67;22.60;;;10.00;99.90;;;;;;5093616;28;20049;-77
2021/01/04 11:39:50;;;;;;;54.67;27.58;;;10.10;99.90;;;;;;5094034;28;20095;-80
2021/01/04 11:42:16;;;;;;;43.85;22.10;;;10.20;99.90;;;;;;5093934;28;20028;-76
2021/01/04 11:44:42;;;;;;;40.58;19.60;;;10.20;99.90;;;;;;5079449;28;20020;-74
2021/01/04 11:47:07;;;;;;;46.13;21.48;;;10.10;99.90;;;;;;5092835;28;20028;-74
2021/01/04 11:49:34;;;;;;;40.45;21.08;;;10.10;99.90;;;;;;5090426;28;20028;-73
2021/01/04 11:52:00;;;;;;;42.58;21.58;;;10.10;99.90;;;;;;5091718;28;20023;-74
2021/01/04 11:54:26;;;;;;;58.20;26.00;;;10.10;99.90;;;;;;5091147;28;20035;-71
2021/01/04 11:56:52;;;;;;;19.95;11.65;;;10.10;99.90;;;;;;5072256;28;20017;-75
2021/01/04 11:59:18;;;;;;;38.83;23.25;;;10.00;99.90;;;;;;5068627;28;20086;-72
2021/01/04 12:01:44;;;;;;;24.00;14.48;;;10.00;99.90;;;;;;5084570;28;20027;-78
2021/01/04 12:04:10;;;;;;;19.33;10.55;;;10.00;99.90;;;;;;5056863;28;20024;-75
2021/01/04 12:06:36;;;;;;;22.15;12.45;;;9.90;99.90;;;;;;5079650;28;20024;-77
2021/01/04 12:09:05;;;;;;;22.00;13.55;;;9.90;99.90;;;;;;5081534;28;20028;-75
2021/01/04 12:11:33;;;;;;;35.10;18.85;;;9.90;99.90;;;;;;5092214;28;20070;-75
2021/01/04 12:13:59;;;;;;;37.45;19.65;;;9.90;99.90;;;;;;5087664;28;20377;-75
2021/01/04 12:16:28;;;;;;;14.52;9.30;;;10.00;99.90;;;;;;5082823;28;20542;-74
2021/01/04 12:18:54;;;;;;;17.38;8.45;;;9.90;99.90;;;;;;5068837;28;20028;-74
2021/01/04 12:21:23;;;;;;;26.45;14.55;;;9.90;99.90;;;;;;5081715;28;20038;-78
2021/01/04 12:23:49;;;;;;;30.73;18.13;;;9.80;99.90;;;;;;5076440;28;20016;-74
2021/01/04 12:26:15;;;;;;;34.88;17.90;;;9.70;99.90;;;;;;5079345;28;20028;-74
2021/01/04 12:28:41;;;;;;;28.50;13.82;;;10.00;99.90;;;;;;5097465;28;20040;-75
2021/01/04 12:31:07;;;;;;;44.15;23.75;;;9.90;99.90;;;;;;5092220;28;20040;-76
2021/01/04 12:33:32;;;;;;;50.13;28.10;;;10.00;99.90;;;;;;5084164;28;20356;-79
2021/01/04 12:35:59;;;;;;;49.15;24.80;;;;;;;;;;5092049;28;20132;-74
2021/01/04 12:38:25;;;;;;;42.55;22.35;;;10.10;99.90;;;;;;5088645;28;20028;-74
2021/01/04 12:40:51;;;;;;;43.20;23.77;;;10.10;99.90;;;;;;5091560;28;20032;-74
2021/01/04 12:43:17;;;;;;;25.55;14.95;;;10.10;99.90;;;;;;5085450;28;20021;-72
2021/01/04 12:45:43;;;;;;;18.98;12.35;;;;;;;;;;5092527;28;20073;-73
2021/01/04 12:48:10;;;;;;;16.73;10.80;;;;;;;;;;5078178;28;20031;-78
2021/01/04 12:50:36;;;;;;;22.10;13.43;;;10.00;99.90;;;;;;5088690;28;20029;-73
2021/01/04 12:53:01;;;;;;;22.27;15.02;;;10.00;99.90;;;;;;5094284;28;20020;-80
2021/01/04 12:55:27;;;;;;;23.27;14.95;;;9.90;99.90;;;;;;5061133;28;20088;-76
2021/01/04 12:57:53;;;;;;;34.13;19.67;;;9.90;99.90;;;;;;5094765;28;20067;-76
2021/01/04 13:00:22;;;;;;;42.35;21.83;;;9.80;99.90;;;;;;5107503;28;20043;-76
2021/01/04 13:02:52;;;;;;;24.27;14.35;;;9.70;99.90;;;;;;5075447;28;20031;-76
2021/01/04 13:05:19;;;;;;;26.85;16.02;;;9.90;99.90;;;;;;5082403;28;20484;-80
2021/01/04 13:07:45;;;;;;;24.20;12.90;;;9.90;99.90;;;;;;5064105;28;20060;-74
2021/01/04 13:10:12;;;;;;;17.10;12.00;;;9.70;99.90;;;;;;5073254;28;20016;-74
2021/01/04 13:12:38;;;;;;;23.40;11.18;;;10.00;99.90;;;;;;5090472;28;20028;-75
2021/01/04 13:15:06;;;;;;;30.83;14.45;;;9.90;99.90;;;;;;5093338;28;20145;-75
2021/01/04 13:17:32;;;;;;;31.60;18.35;;;9.90;99.90;;;;;;5095018;28;20024;-73
2021/01/04 13:19:59;;;;;;;24.85;17.63;;;9.90;99.90;;;;;;5088385;28;20055;-73
2021/01/04 13:22:26;;;;;;;27.90;16.50;;;9.90;99.90;;;;;;5090023;28;20065;-72
2021/01/04 13:24:52;;;;;;;39.95;21.38;;;9.90;99.90;;;;;;5088676;28;20027;-75
2021/01/04 13:27:19;;;;;;;52.00;29.15;;;9.80;99.90;;;;;;5088077;28;20039;-74